createdAt,value
2022-08-11T00:01:25.137Z,22.80
2022-08-11T00:04:01.267Z,22.70
2022-08-11T00:06:36.726Z,22.80
2022-08-11T00:09:08.037Z,22.80
2022-08-11T00:11:41.554Z,22.80
2022-08-11T00:14:16.078Z,22.80
2022-08-11T00:16:43.600Z,22.70
2022-08-11T00:19:11.662Z,22.70
2022-08-11T00:22:04.334Z,22.60
2022-08-11T00:24:34.499Z,22.60
2022-08-11T00:27:34.082Z,22.40
2022-08-11T00:30:01.486Z,22.50
2022-08-11T00:32:30.049Z,22.30
2022-08-11T00:35:55.429Z,22.30
2022-08-11T00:37:53.958Z,22.30
2022-08-11T00:40:37.570Z,22.40
2022-08-11T00:43:24.100Z,22.40
2022-08-11T00:46:12.894Z,22.40
2022-08-11T00:48:50.643Z,22.30
2022-08-11T00:52:05.860Z,22.20
2022-08-11T00:54:39.087Z,22.10
2022-08-11T00:57:42.550Z,22.00
2022-08-11T01:00:17.454Z,21.90
2022-08-11T01:03:10.490Z,21.90
2022-08-11T01:06:08.026Z,21.90
2022-08-11T01:08:56.538Z,21.90
2022-08-11T01:11:55.674Z,22.00
2022-08-11T01:14:48.401Z,22.00
2022-08-11T01:17:40.302Z,21.90
2022-08-11T01:20:46.458Z,21.90
2022-08-11T01:23:53.127Z,21.80
2022-08-11T01:27:19.092Z,21.80
2022-08-11T01:30:22.179Z,21.70
2022-08-11T01:33:26.923Z,21.60
2022-08-11T01:36:30.961Z,21.70
2022-08-11T01:39:14.038Z,21.70
2022-08-11T01:42:35.056Z,21.70
2022-08-11T01:45:25.333Z,21.70
2022-08-11T01:48:13.234Z,21.60
2022-08-11T01:50:54.161Z,21.80
2022-08-11T01:53:43.341Z,21.50
2022-08-11T01:56:19.342Z,21.50
2022-08-11T01:59:00.399Z,21.50
2022-08-11T02:01:50.430Z,21.40
2022-08-11T02:04:23.267Z,21.40
2022-08-11T02:07:15.175Z,21.40
2022-08-11T02:10:26.804Z,21.30
2022-08-11T02:13:34.066Z,21.30
2022-08-11T02:16:55.621Z,21.30
2022-08-11T02:19:52.297Z,21.20
2022-08-11T02:23:09.738Z,21.20
2022-08-11T02:26:02.163Z,21.20
2022-08-11T02:28:46.663Z,21.10
2022-08-11T02:32:25.168Z,21.10
2022-08-11T02:35:00.221Z,21.10
2022-08-11T02:37:45.912Z,21.20
2022-08-11T02:40:34.266Z,21.00
2022-08-11T02:43:18.078Z,21.00
2022-08-11T02:45:56.607Z,20.90
2022-08-11T02:49:04.002Z,20.90
2022-08-11T02:52:14.321Z,20.90
2022-08-11T02:54:59.611Z,20.80
2022-08-11T02:57:37.835Z,20.80
2022-08-11T03:00:10.957Z,20.70
2022-08-11T03:02:59.180Z,20.70
2022-08-11T03:05:53.007Z,20.70
2022-08-11T03:08:39.811Z,20.60
2022-08-11T03:12:01.603Z,20.60
2022-08-11T03:15:11.532Z,20.60
2022-08-11T03:17:47.208Z,20.60
2022-08-11T03:20:53.174Z,20.60
2022-08-11T03:23:39.386Z,20.50
2022-08-11T03:26:31.956Z,20.30
2022-08-11T03:29:01.882Z,20.50
2022-08-11T03:31:34.426Z,20.50
2022-08-11T03:34:13.530Z,20.40
2022-08-11T03:37:16.921Z,20.30
2022-08-11T03:40:06.574Z,20.40
2022-08-11T03:42:50.175Z,20.30
2022-08-11T03:45:25.049Z,20.30
2022-08-11T03:48:18.971Z,20.30
2022-08-11T03:50:57.672Z,20.30
2022-08-11T03:53:41.341Z,20.30
2022-08-11T03:56:11.592Z,20.20
2022-08-11T03:59:00.030Z,20.10
2022-08-11T04:02:04.553Z,20.10
2022-08-11T04:04:35.559Z,20.10
2022-08-11T04:07:47.098Z,20.10
2022-08-11T04:10:26.990Z,20.10
2022-08-11T04:13:15.649Z,20.00
2022-08-11T04:16:30.163Z,20.00
2022-08-11T04:19:37.043Z,20.00
2022-08-11T04:22:35.717Z,20.00
2022-08-11T04:25:57.989Z,19.90
2022-08-11T04:28:49.831Z,19.90
2022-08-11T04:31:52.456Z,19.90
2022-08-11T04:35:07.159Z,19.80
2022-08-11T04:38:11.386Z,19.80
2022-08-11T04:41:17.630Z,19.80
2022-08-11T04:44:18.372Z,19.90
2022-08-11T04:46:57.379Z,19.90
2022-08-11T04:50:28.508Z,19.80
2022-08-11T04:53:27.417Z,19.80
2022-08-11T04:56:21.881Z,19.90
2022-08-11T04:59:44.775Z,19.90
2022-08-11T05:02:30.295Z,19.90
2022-08-11T05:05:33.391Z,19.90
2022-08-11T05:08:35.420Z,19.90
2022-08-11T05:11:24.009Z,19.80
2022-08-11T05:14:32.047Z,19.80
2022-08-11T05:17:29.991Z,19.80
2022-08-11T05:20:15.360Z,19.90
2022-08-11T05:23:08.862Z,19.90
2022-08-11T05:26:43.387Z,19.90
2022-08-11T05:29:19.252Z,20.00
2022-08-11T05:32:14.310Z,20.00
2022-08-11T05:34:54.407Z,20.10
2022-08-11T05:37:31.941Z,20.10
2022-08-11T05:40:30.272Z,20.20
2022-08-11T05:43:18.623Z,20.30
2022-08-11T05:46:19.330Z,20.30
2022-08-11T05:49:06.123Z,20.40
2022-08-11T05:51:57.329Z,20.60
2022-08-11T05:54:51.775Z,20.70
2022-08-11T05:57:49.461Z,20.80
2022-08-11T06:00:14.673Z,20.80
2022-08-11T06:02:52.040Z,20.90
2022-08-11T06:05:31.495Z,21.00
2022-08-11T06:08:07.271Z,21.00
2022-08-11T06:10:40.691Z,21.20
2022-08-11T06:13:09.873Z,21.10
2022-08-11T06:15:52.268Z,21.20
2022-08-11T06:18:19.743Z,21.30
2022-08-11T06:20:55.079Z,21.40
2022-08-11T06:23:23.964Z,21.70
2022-08-11T06:25:52.920Z,21.70
2022-08-11T06:28:32.528Z,21.80
2022-08-11T06:31:00.027Z,21.90
2022-08-11T06:33:35.277Z,22.10
2022-08-11T06:36:23.148Z,22.20
2022-08-11T06:39:09.487Z,22.20
2022-08-11T06:41:48.430Z,22.30
2022-08-11T06:44:21.158Z,22.50
2022-08-11T06:46:54.634Z,22.70
2022-08-11T06:49:50.566Z,22.60
2022-08-11T06:52:35.330Z,22.70
2022-08-11T06:55:56.835Z,22.80
2022-08-11T06:58:41.134Z,22.90
2022-08-11T07:01:14.643Z,22.90
2022-08-11T07:03:46.539Z,23.10
2022-08-11T07:06:41.398Z,23.40
2022-08-11T07:10:17.570Z,23.60
2022-08-11T07:13:06.539Z,23.90
2022-08-11T07:16:12.065Z,24.00
2022-08-11T07:18:54.607Z,24.10
2022-08-11T07:22:01.536Z,24.40
2022-08-11T07:24:59.823Z,24.40
2022-08-11T07:27:57.626Z,24.60
2022-08-11T07:30:26.283Z,24.90
2022-08-11T07:32:56.887Z,25.10
2022-08-11T07:35:45.741Z,25.20
2022-08-11T07:38:25.168Z,25.20
2022-08-11T07:40:52.615Z,25.40
2022-08-11T07:43:19.866Z,25.60
2022-08-11T07:46:06.100Z,25.80
2022-08-11T07:48:53.261Z,25.90
2022-08-11T07:51:39.560Z,26.10
2022-08-11T07:54:17.186Z,26.10
2022-08-11T07:57:07.170Z,26.30
2022-08-11T08:00:03.477Z,26.50
2022-08-11T08:03:01.881Z,26.60
2022-08-11T08:05:48.623Z,26.80
2022-08-11T08:08:34.858Z,26.90
2022-08-11T08:11:27.542Z,27.10
2022-08-11T08:14:13.572Z,27.50
2022-08-11T08:16:59.961Z,27.80
2022-08-11T08:19:27.918Z,27.80
2022-08-11T08:21:55.258Z,27.90
2022-08-11T08:24:41.740Z,28.10
2022-08-11T08:27:12.492Z,28.20
2022-08-11T08:29:58.811Z,28.40
2022-08-11T08:32:27.805Z,28.30
2022-08-11T08:34:56.941Z,28.30
2022-08-11T08:37:46.087Z,28.20
2022-08-11T08:40:14.118Z,28.10
2022-08-11T08:42:48.368Z,28.00
2022-08-11T08:45:18.808Z,28.00
2022-08-11T08:48:04.098Z,28.10
2022-08-11T08:50:55.984Z,28.20
2022-08-11T08:53:31.836Z,28.50
2022-08-11T08:56:01.387Z,28.90
2022-08-11T08:58:30.055Z,28.80
2022-08-11T09:00:59.814Z,28.90
2022-08-11T09:04:04.575Z,28.90
2022-08-11T09:06:18.218Z,29.00
2022-08-11T09:08:46.085Z,29.00
2022-08-11T09:11:35.424Z,29.20
2022-08-11T09:14:05.870Z,29.10
2022-08-11T09:16:36.166Z,29.20
2022-08-11T09:19:04.117Z,29.30
2022-08-11T09:21:46.515Z,29.30
2022-08-11T09:24:36.290Z,29.30
2022-08-11T09:27:10.322Z,29.30
2022-08-11T09:29:38.488Z,29.40
2022-08-11T09:32:08.288Z,29.50
2022-08-11T09:34:37.119Z,29.80
2022-08-11T09:37:54.687Z,29.90
2022-08-11T09:40:31.490Z,29.90
2022-08-11T09:43:21.818Z,29.80
2022-08-11T09:45:51.514Z,29.90
2022-08-11T09:48:26.330Z,29.80
2022-08-11T09:50:56.688Z,30.10
2022-08-11T09:53:36.392Z,30.20
2022-08-11T09:56:34.296Z,30.30
2022-08-11T09:59:03.739Z,30.50
2022-08-11T10:01:37.641Z,30.60
2022-08-11T10:04:07.899Z,30.40
2022-08-11T10:06:57.777Z,30.30
2022-08-11T10:09:25.656Z,30.30
2022-08-11T10:11:58.242Z,30.30
2022-08-11T10:14:46.369Z,30.30
2022-08-11T10:17:15.968Z,30.30
2022-08-11T10:19:45.212Z,30.30
2022-08-11T10:22:50.620Z,30.40
2022-08-11T10:25:37.421Z,30.50
2022-08-11T10:28:28.178Z,30.80
2022-08-11T10:31:14.496Z,30.90
2022-08-11T10:34:00.825Z,30.80
2022-08-11T10:36:33.443Z,30.80
2022-08-11T10:39:02.394Z,30.80
2022-08-11T10:42:06.517Z,30.90
2022-08-11T10:44:39.295Z,30.90
2022-08-11T10:47:25.772Z,30.80
2022-08-11T10:50:12.510Z,30.90
2022-08-11T10:52:59.131Z,30.90
2022-08-11T10:55:45.088Z,31.00
2022-08-11T10:58:31.284Z,31.00
2022-08-11T11:01:00.504Z,31.10
2022-08-11T11:03:30.287Z,31.20
2022-08-11T11:06:28.901Z,31.40
2022-08-11T11:09:11.327Z,31.60
2022-08-11T11:12:02.128Z,31.40
2022-08-11T11:14:58.150Z,31.40
2022-08-11T11:17:56.828Z,31.30
2022-08-11T11:20:34.470Z,31.30
2022-08-11T11:23:47.275Z,31.40
2022-08-11T11:26:41.006Z,31.60
2022-08-11T11:29:16.972Z,31.80
2022-08-11T11:32:08.924Z,31.70
2022-08-11T11:34:54.124Z,31.50
2022-08-11T11:37:23.581Z,31.30
2022-08-11T11:39:51.360Z,31.40
2022-08-11T11:42:19.528Z,31.40
2022-08-11T11:44:47.974Z,31.40
2022-08-11T11:47:16.789Z,31.40
2022-08-11T11:49:44.996Z,31.60
2022-08-11T11:52:20.184Z,31.50
2022-08-11T11:54:51.427Z,31.50
2022-08-11T11:57:39.340Z,31.40
2022-08-11T12:00:33.178Z,31.40
2022-08-11T12:03:07.847Z,31.50
2022-08-11T12:05:37.324Z,31.80
2022-08-11T12:08:17.411Z,31.90
2022-08-11T12:10:48.406Z,31.90
2022-08-11T12:13:36.259Z,31.90
2022-08-11T12:16:32.980Z,31.90
2022-08-11T12:18:54.042Z,31.90
2022-08-11T12:21:21.761Z,31.80
2022-08-11T12:24:08.080Z,31.70
2022-08-11T12:27:16.504Z,31.80
2022-08-11T12:29:45.157Z,32.00
2022-08-11T12:32:12.297Z,32.00
2022-08-11T12:34:39.318Z,32.10
2022-08-11T12:37:12.903Z,32.20
2022-08-11T12:40:16.219Z,32.30
2022-08-11T12:43:21.246Z,32.30
2022-08-11T12:45:58.107Z,32.40
2022-08-11T12:49:00.898Z,32.30
2022-08-11T12:52:11.529Z,32.20
2022-08-11T12:54:57.182Z,32.20
2022-08-11T12:58:01.144Z,32.40
2022-08-11T13:00:49.922Z,32.40
2022-08-11T13:03:39.043Z,32.60
2022-08-11T13:06:07.288Z,32.80
2022-08-11T13:08:36.647Z,33.00
2022-08-11T13:11:23.080Z,32.90
2022-08-11T13:13:57.087Z,32.90
2022-08-11T13:16:29.056Z,32.90
2022-08-11T13:18:58.895Z,33.00
2022-08-11T13:21:27.939Z,33.10
2022-08-11T13:23:59.748Z,32.80
2022-08-11T13:26:47.507Z,33.00
2022-08-11T13:29:22.634Z,33.00
2022-08-11T13:31:51.413Z,32.90
2022-08-11T13:34:20.071Z,33.00
2022-08-11T13:36:51.867Z,33.20
2022-08-11T13:39:19.334Z,33.90
2022-08-11T13:41:48.473Z,34.80
2022-08-11T13:44:23.197Z,35.80
2022-08-11T13:46:55.130Z,36.80
2022-08-11T13:49:22.571Z,37.50
2022-08-11T13:51:50.086Z,37.90
2022-08-11T13:54:21.308Z,38.20
2022-08-11T13:56:52.873Z,38.10
2022-08-11T13:59:23.943Z,38.30
2022-08-11T14:02:21.776Z,38.80
2022-08-11T14:05:15.339Z,39.10
2022-08-11T14:07:52.454Z,39.00
2022-08-11T14:10:23.223Z,38.70
2022-08-11T14:13:22.248Z,38.20
2022-08-11T14:15:51.907Z,37.70
2022-08-11T14:18:32.062Z,38.00
2022-08-11T14:21:21.798Z,38.30
2022-08-11T14:23:54.888Z,38.90
2022-08-11T14:26:36.375Z,39.70
2022-08-11T14:29:08.385Z,40.00
2022-08-11T14:31:39.302Z,40.00
2022-08-11T14:34:12.540Z,39.30
2022-08-11T14:36:40.277Z,39.20
2022-08-11T14:39:13.394Z,39.50
2022-08-11T14:42:12.289Z,39.40
2022-08-11T14:45:10.720Z,39.60
2022-08-11T14:47:41.151Z,39.90
2022-08-11T14:50:13.994Z,40.30
2022-08-11T14:52:57.828Z,40.60
2022-08-11T14:55:48.074Z,40.00
2022-08-11T14:58:20.863Z,39.20
2022-08-11T15:00:53.350Z,38.90
2022-08-11T15:03:27.609Z,39.20
2022-08-11T15:05:58.509Z,39.60
2022-08-11T15:08:53.707Z,40.10
2022-08-11T15:11:48.864Z,40.30
2022-08-11T15:14:39.909Z,40.70
2022-08-11T15:17:10.097Z,40.30
2022-08-11T15:20:00.865Z,40.50
2022-08-11T15:22:46.923Z,40.80
2022-08-11T15:25:14.362Z,40.70
2022-08-11T15:28:04.273Z,40.70
2022-08-11T15:30:50.332Z,40.90
2022-08-11T15:33:38.302Z,41.10
2022-08-11T15:36:29.284Z,40.80
2022-08-11T15:39:03.777Z,40.90
2022-08-11T15:41:58.593Z,41.10
2022-08-11T15:45:05.476Z,41.50
2022-08-11T15:48:05.051Z,41.80
2022-08-11T15:50:36.866Z,41.80
2022-08-11T15:53:10.291Z,41.50
2022-08-11T15:55:39.176Z,41.40
2022-08-11T15:58:27.726Z,41.40
2022-08-11T16:01:14.877Z,41.50
2022-08-11T16:04:14.373Z,41.70
2022-08-11T16:06:55.769Z,41.10
2022-08-11T16:09:29.168Z,39.70
2022-08-11T16:12:09.009Z,37.90
2022-08-11T16:15:20.120Z,35.80
2022-08-11T16:17:52.066Z,34.40
2022-08-11T16:20:23.932Z,33.50
2022-08-11T16:23:01.230Z,33.10
2022-08-11T16:27:05.716Z,33.00
2022-08-11T16:28:18.761Z,32.80
2022-08-11T16:30:50.072Z,32.60
2022-08-11T16:33:48.080Z,32.60
2022-08-11T16:36:28.727Z,32.50
2022-08-11T16:38:57.987Z,32.50
2022-08-11T16:41:48.408Z,32.30
2022-08-11T16:44:37.165Z,32.20
2022-08-11T16:47:12.869Z,32.10
2022-08-11T16:49:52.184Z,32.10
2022-08-11T16:52:21.007Z,32.10
2022-08-11T16:54:48.270Z,32.10
2022-08-11T16:57:43.341Z,32.00
2022-08-11T17:00:14.802Z,31.90
2022-08-11T17:03:09.461Z,31.80
2022-08-11T17:05:57.758Z,31.70
2022-08-11T17:08:56.863Z,31.70
2022-08-11T17:11:50.185Z,31.60
2022-08-11T17:14:35.691Z,31.60
2022-08-11T17:17:06.610Z,31.50
2022-08-11T17:20:41.889Z,31.50
2022-08-11T17:22:48.730Z,31.50
2022-08-11T17:25:17.033Z,31.50
2022-08-11T17:27:46.400Z,31.40
2022-08-11T17:30:14.961Z,31.30
2022-08-11T17:33:05.578Z,31.20
2022-08-11T17:35:39.233Z,31.20
2022-08-11T17:38:08.532Z,31.10
2022-08-11T17:40:40.299Z,31.00
2022-08-11T17:43:28.986Z,31.00
2022-08-11T17:46:15.596Z,31.00
2022-08-11T17:48:48.021Z,30.90
2022-08-11T17:51:38.367Z,30.90
2022-08-11T17:54:25.875Z,30.80
2022-08-11T17:57:20.502Z,30.80
2022-08-11T17:59:52.739Z,30.70
2022-08-11T18:02:48.739Z,30.60
2022-08-11T18:05:20.657Z,30.60
2022-08-11T18:08:12.263Z,30.50
2022-08-11T18:10:59.531Z,30.50
2022-08-11T18:13:49.568Z,30.40
2022-08-11T18:16:39.343Z,30.30
2022-08-11T18:19:30.697Z,30.20
2022-08-11T18:22:24.026Z,30.10
2022-08-11T18:25:16.108Z,30.10
2022-08-11T18:28:04.871Z,30.00
2022-08-11T18:31:03.250Z,30.00
2022-08-11T18:34:14.551Z,29.90
2022-08-11T18:37:28.561Z,29.90
2022-08-11T18:40:21.304Z,29.70
2022-08-11T18:43:08.389Z,29.70
2022-08-11T18:46:06.220Z,29.60
2022-08-11T18:48:56.596Z,29.50
2022-08-11T18:51:44.137Z,29.40
2022-08-11T18:54:30.958Z,29.30
2022-08-11T18:57:20.558Z,29.10
2022-08-11T19:00:08.440Z,29.10
2022-08-11T19:02:56.418Z,29.00
2022-08-11T19:06:35.810Z,28.80
2022-08-11T19:08:55.780Z,28.80
2022-08-11T19:11:46.647Z,28.80
2022-08-11T19:14:34.873Z,28.70
2022-08-11T19:17:45.158Z,28.60
2022-08-11T19:20:35.814Z,28.60
2022-08-11T19:23:24.966Z,28.60
2022-08-11T19:26:11.948Z,28.50
2022-08-11T19:28:59.776Z,28.40
2022-08-11T19:31:46.208Z,28.30
2022-08-11T19:34:37.232Z,28.30
2022-08-11T19:37:25.885Z,28.10
2022-08-11T19:40:23.268Z,28.00
2022-08-11T19:43:14.758Z,28.00
2022-08-11T19:46:11.888Z,27.80
2022-08-11T19:48:58.859Z,27.70
2022-08-11T19:51:46.280Z,27.70
2022-08-11T19:54:33.476Z,27.70
2022-08-11T19:57:23.532Z,27.60
2022-08-11T20:00:10.495Z,27.60
2022-08-11T20:02:56.206Z,27.60
2022-08-11T20:05:50.006Z,27.60
2022-08-11T20:08:43.282Z,27.60
2022-08-11T20:11:30.653Z,27.60
2022-08-11T20:14:17.013Z,27.60
2022-08-11T20:17:05.289Z,27.50
2022-08-11T20:19:57.402Z,27.50
2022-08-11T20:22:45.369Z,27.50
2022-08-11T20:25:32.585Z,27.40
2022-08-11T20:28:24.179Z,27.30
2022-08-11T20:31:12.251Z,27.20
2022-08-11T20:33:59.377Z,27.30
2022-08-11T20:36:49.928Z,27.00
2022-08-11T20:39:41.190Z,27.10
2022-08-11T20:42:30.475Z,27.00
2022-08-11T20:45:23.775Z,27.00
2022-08-11T20:48:14.819Z,27.00
2022-08-11T20:51:07.196Z,27.00
2022-08-11T20:53:59.279Z,27.00
2022-08-11T20:56:54.265Z,26.90
2022-08-11T20:59:56.380Z,26.90
2022-08-11T21:02:44.403Z,26.80
2022-08-11T21:06:09.964Z,26.80
2022-08-11T21:08:38.720Z,26.70
2022-08-11T21:11:29.178Z,26.60
2022-08-11T21:14:16.641Z,26.60
2022-08-11T21:17:27.078Z,26.50
2022-08-11T21:20:18.384Z,26.40
2022-08-11T21:23:24.171Z,26.50
2022-08-11T21:26:16.270Z,26.30
2022-08-11T21:29:03.409Z,26.20
2022-08-11T21:31:50.993Z,26.10
2022-08-11T21:34:39.673Z,26.10
2022-08-11T21:37:27.378Z,26.10
2022-08-11T21:40:17.525Z,26.00
2022-08-11T21:43:06.210Z,26.00
2022-08-11T21:45:55.301Z,25.90
2022-08-11T21:48:44.057Z,25.80
2022-08-11T21:51:29.998Z,25.90
2022-08-11T21:54:18.417Z,25.80
2022-08-11T21:57:05.825Z,25.70
2022-08-11T22:00:00.028Z,25.70
2022-08-11T22:02:50.918Z,25.60
2022-08-11T22:05:40.997Z,25.50
2022-08-11T22:08:27.672Z,25.50
2022-08-11T22:11:13.722Z,25.40
2022-08-11T22:14:06.143Z,25.30
2022-08-11T22:16:54.828Z,25.20
2022-08-11T22:19:41.657Z,25.20
2022-08-11T22:22:31.272Z,25.30
2022-08-11T22:25:18.829Z,25.30
2022-08-11T22:28:07.932Z,25.30
2022-08-11T22:30:53.526Z,25.20
2022-08-11T22:34:02.050Z,25.20
2022-08-11T22:36:47.754Z,25.20
2022-08-11T22:39:35.424Z,25.10
2022-08-11T22:42:24.103Z,25.10
2022-08-11T22:45:19.615Z,25.00
2022-08-11T22:48:06.685Z,24.90
2022-08-11T22:50:55.110Z,24.90
2022-08-11T22:53:58.074Z,24.80
2022-08-11T22:56:51.212Z,24.70
2022-08-11T22:59:38.580Z,24.70
2022-08-11T23:02:25.741Z,24.60
2022-08-11T23:05:12.782Z,24.50
2022-08-11T23:08:00.524Z,24.50
2022-08-11T23:10:48.343Z,24.50
2022-08-11T23:13:34.651Z,24.40
2022-08-11T23:16:21.345Z,24.40
2022-08-11T23:19:08.399Z,24.40
2022-08-11T23:21:54.485Z,24.30
2022-08-11T23:24:40.965Z,24.40
2022-08-11T23:27:28.414Z,24.40
2022-08-11T23:30:17.179Z,24.40
2022-08-11T23:33:07.003Z,24.40
2022-08-11T23:35:58.005Z,24.40
2022-08-11T23:38:47.433Z,24.40
2022-08-11T23:41:33.935Z,24.40
2022-08-11T23:44:21.577Z,24.30
2022-08-11T23:47:14.043Z,24.20
2022-08-11T23:50:01.685Z,24.20
2022-08-11T23:52:48.713Z,24.30
2022-08-11T23:55:38.545Z,24.20
2022-08-11T23:58:24.741Z,24.20
